Time;durP1;ratioP1;P1;durP2;ratioP2;P2;SDS_P1;SDS_P2;PMS_P1;PMS_P2;Temp;Humidity;BMP_temperature;BMP_pressure;BME280_temperature;BME280_humidity;BME280_pressure;Samples;Min_cycle;Max_cycle;Signal;HPM_P1;HPM_P2
2023/09/12 00:01:35;;;;;;;2.97;2.90;;;16.80;99.90;;;;;;4196182;28;20387;-57
2023/09/12 00:03:54;;;;;;;3.92;3.25;;;16.80;99.90;;;;;;4189917;28;20060;-56
2023/09/12 00:06:15;;;;;;;3.40;3.30;;;16.80;99.90;;;;;;4190391;28;20260;-57
2023/09/12 00:08:35;;;;;;;3.15;2.97;;;16.50;99.90;;;;;;4196829;28;20051;-57
2023/09/12 00:11:04;;;;;;;3.30;3.10;;;16.40;99.90;;;;;;4190104;28;20079;-57
2023/09/12 00:13:24;;;;;;;2.65;2.55;;;16.30;99.90;;;;;;4192516;28;20052;-57
2023/09/12 00:15:44;;;;;;;3.33;3.13;;;16.50;99.90;;;;;;4190954;28;20052;-57
2023/09/12 00:18:04;;;;;;;3.42;3.33;;;16.60;99.90;;;;;;4190678;28;20236;-57
2023/09/12 00:20:24;;;;;;;4.03;3.92;;;16.70;99.90;;;;;;4195342;28;20236;-58
2023/09/12 00:22:45;;;;;;;3.10;3.00;;;16.80;99.90;;;;;;4194340;28;20047;-56
2023/09/12 00:25:05;;;;;;;4.00;3.80;;;16.70;99.90;;;;;;4192462;28;20048;-57
2023/09/12 00:27:25;;;;;;;4.43;3.90;;;16.60;99.90;;;;;;4192337;28;20260;-57
2023/09/12 00:29:45;;;;;;;3.05;2.85;;;16.20;99.90;;;;;;4190876;28;20067;-57
2023/09/12 00:32:05;;;;;;;3.22;2.90;;;16.00;99.90;;;;;;4197383;28;20052;-57
2023/09/12 00:34:25;;;;;;;4.53;3.38;;;16.00;99.90;;;;;;4196496;28;20056;-57
2023/09/12 00:36:44;;;;;;;4.45;4.22;;;16.10;99.90;;;;;;4192056;28;20095;-56
2023/09/12 00:39:04;;;;;;;3.85;3.53;;;16.20;99.90;;;;;;4191966;28;20040;-57
2023/09/12 00:41:24;;;;;;;3.92;3.83;;;16.20;99.90;;;;;;4190728;28;20048;-57
2023/09/12 00:43:44;;;;;;;3.67;3.58;;;16.00;99.90;;;;;;4194121;28;20056;-57
2023/09/12 00:46:04;;;;;;;4.28;3.63;;;16.00;99.90;;;;;;4196887;28;20071;-57
2023/09/12 00:48:24;;;;;;;3.58;3.47;;;16.00;99.90;;;;;;4191489;28;20087;-57
2023/09/12 00:50:46;;;;;;;3.58;3.38;;;15.80;99.90;;;;;;4195241;28;20048;-57
2023/09/12 00:53:06;;;;;;;3.28;3.17;;;15.70;99.90;;;;;;4192637;28;20048;-57
2023/09/12 00:55:29;;;;;;;4.30;4.10;;;15.90;99.90;;;;;;4191447;28;20060;-57
2023/09/12 00:57:50;;;;;;;3.85;3.75;;;15.80;99.90;;;;;;4190280;28;20047;-57
2023/09/12 01:00:13;;;;;;;3.80;3.65;;;15.70;99.90;;;;;;4189352;28;20087;-57
2023/09/12 01:02:34;;;;;;;3.40;3.30;;;15.80;99.90;;;;;;4191784;28;20051;-57
2023/09/12 01:04:53;;;;;;;3.53;3.22;;;15.90;99.90;;;;;;4188770;28;20405;-57
2023/09/12 01:07:14;;;;;;;4.03;3.83;;;15.80;99.90;;;;;;4191057;28;20055;-57
2023/09/12 01:09:34;;;;;;;3.42;3.33;;;15.70;99.90;;;;;;4192448;28;20047;-57
2023/09/12 01:11:54;;;;;;;3.83;3.72;;;15.70;99.90;;;;;;4191740;28;20055;-56
2023/09/12 01:14:14;;;;;;;4.20;3.95;;;15.70;99.90;;;;;;4191753;28;20390;-57
2023/09/12 01:16:34;;;;;;;3.63;3.53;;;15.60;99.90;;;;;;4192782;28;20079;-56
2023/09/12 01:18:54;;;;;;;3.20;3.10;;;15.50;99.90;;;;;;4192632;28;20247;-56
2023/09/12 01:21:52;;;;;;;3.75;3.65;;;15.60;99.90;;;;;;4191542;28;20047;-56
2023/09/12 01:25:06;;;;;;;3.70;3.38;;;15.40;99.90;;;;;;4190239;28;20301;-57
2023/09/12 01:27:28;;;;;;;3.80;3.70;;;15.50;99.90;;;;;;4170405;28;20278;-57
2023/09/12 01:29:53;;;;;;;4.05;3.95;;;15.60;99.90;;;;;;4191896;28;20082;-56
2023/09/12 01:32:16;;;;;;;3.88;3.78;;;15.60;99.90;;;;;;4190638;28;20402;-56
2023/09/12 01:34:36;;;;;;;4.03;3.83;;;15.50;99.90;;;;;;4191609;28;20047;-57
2023/09/12 01:36:55;;;;;;;3.70;3.50;;;15.60;99.90;;;;;;4190255;28;20036;-57
2023/09/12 01:39:15;;;;;;;5.20;5.00;;;15.60;99.90;;;;;;4193168;28;20055;-57
2023/09/12 01:41:40;;;;;;;3.55;3.45;;;15.50;99.90;;;;;;4193123;28;20040;-57
2023/09/12 01:44:02;;;;;;;3.30;3.20;;;15.60;99.90;;;;;;4192690;28;20044;-58
2023/09/12 01:46:23;;;;;;;4.60;4.30;;;15.50;99.90;;;;;;4192518;28;20366;-57
2023/09/12 01:48:44;;;;;;;3.67;3.38;;;15.50;99.90;;;;;;4191172;28;20048;-56
2023/09/12 01:51:06;;;;;;;3.40;3.30;;;15.50;99.90;;;;;;4190696;28;20048;-56
2023/09/12 01:53:26;;;;;;;4.28;4.18;;;15.50;99.90;;;;;;4191088;28;20082;-57
2023/09/12 01:55:48;;;;;;;3.53;3.35;;;15.50;99.90;;;;;;4196223;28;20422;-56
2023/09/12 01:58:08;;;;;;;4.70;4.00;;;15.30;99.90;;;;;;4190627;28;20043;-56
2023/09/12 02:00:29;;;;;;;4.32;4.15;;;15.20;99.90;;;;;;4191607;28;20364;-56
2023/09/12 02:02:49;;;;;;;3.85;3.75;;;15.20;99.90;;;;;;4195953;28;20068;-57
2023/09/12 02:05:18;;;;;;;4.43;4.13;;;15.20;99.90;;;;;;4192942;28;20091;-56
2023/09/12 02:07:41;;;;;;;4.00;3.72;;;15.10;99.90;;;;;;4190878;28;20076;-57
2023/09/12 02:10:01;;;;;;;4.30;4.10;;;15.00;99.90;;;;;;4193115;28;20267;-57
2023/09/12 02:12:21;;;;;;;4.22;3.90;;;15.00;99.90;;;;;;4190125;28;20048;-57
2023/09/12 02:14:41;;;;;;;4.22;4.13;;;14.80;99.90;;;;;;4190355;28;20048;-57
2023/09/12 02:17:01;;;;;;;5.00;4.70;;;14.70;99.90;;;;;;4192021;28;20040;-57
2023/09/12 02:19:21;;;;;;;4.90;4.70;;;14.80;99.90;;;;;;4189767;28;20052;-56
2023/09/12 02:21:41;;;;;;;4.78;4.68;;;14.70;99.90;;;;;;4189451;28;20052;-57
2023/09/12 02:24:02;;;;;;;4.28;4.18;;;14.80;99.90;;;;;;4188627;28;20367;-56
2023/09/12 02:26:22;;;;;;;5.72;5.38;;;14.50;99.90;;;;;;4187988;28;20103;-57
2023/09/12 02:28:42;;;;;;;3.75;3.65;;;14.50;99.90;;;;;;4190436;28;20646;-57
2023/09/12 02:31:02;;;;;;;4.47;4.30;;;14.60;99.90;;;;;;4190638;28;20055;-56
2023/09/12 02:33:22;;;;;;;4.60;4.50;;;14.70;99.90;;;;;;4190212;28;20051;-56
2023/09/12 02:35:42;;;;;;;2.97;2.88;;;14.70;99.90;;;;;;4191187;28;20369;-57
2023/09/12 02:38:02;;;;;;;5.13;5.03;;;14.80;99.90;;;;;;4190866;28;20051;-57
2023/09/12 02:40:22;;;;;;;4.40;4.25;;;14.80;99.90;;;;;;4191120;28;20074;-57
2023/09/12 02:42:42;;;;;;;4.85;4.47;;;14.60;99.90;;;;;;4191171;28;20078;-57
2023/09/12 02:45:03;;;;;;;4.57;4.38;;;14.40;99.90;;;;;;4191318;28;20232;-56
2023/09/12 02:47:23;;;;;;;4.63;4.38;;;14.20;99.90;;;;;;4190004;28;20067;-57
2023/09/12 02:49:43;;;;;;;5.10;4.80;;;14.30;99.90;;;;;;4188184;28;20083;-57
2023/09/12 02:52:03;;;;;;;5.13;4.78;;;14.40;99.90;;;;;;4189488;28;20244;-57
2023/09/12 02:54:23;;;;;;;4.55;4.45;;;14.60;99.90;;;;;;4190639;28;20263;-58
2023/09/12 02:56:43;;;;;;;5.28;5.07;;;14.40;99.90;;;;;;4191063;28;20044;-57
2023/09/12 02:59:04;;;;;;;5.35;5.10;;;14.20;99.90;;;;;;4192899;28;20076;-57
2023/09/12 03:01:27;;;;;;;4.78;4.57;;;14.10;99.90;;;;;;4191104;28;20366;-56
2023/09/12 03:03:49;;;;;;;4.72;4.43;;;14.00;99.90;;;;;;4191255;28;20120;-57
2023/09/12 03:06:09;;;;;;;5.30;5.00;;;13.90;99.90;;;;;;4192189;28;20052;-57
2023/09/12 03:08:30;;;;;;;4.80;4.70;;;13.90;99.90;;;;;;4190612;28;20059;-56
2023/09/12 03:10:59;;;;;;;5.43;5.32;;;14.10;99.90;;;;;;4190918;28;20398;-56
2023/09/12 03:13:19;;;;;;;4.15;4.05;;;13.90;99.90;;;;;;4189372;28;20051;-56
2023/09/12 03:15:38;;;;;;;4.25;4.15;;;13.70;99.90;;;;;;4189433;28;20052;-56
2023/09/12 03:17:58;;;;;;;5.22;4.97;;;13.70;99.90;;;;;;4189367;28;20408;-56
2023/09/12 03:20:18;;;;;;;5.78;5.55;;;13.80;99.90;;;;;;4189808;28;20044;-56
2023/09/12 03:22:38;;;;;;;5.18;5.07;;;13.90;99.90;;;;;;4191233;28;20097;-57
2023/09/12 03:24:58;;;;;;;5.15;4.97;;;13.70;99.90;;;;;;4190280;28;20047;-56
2023/09/12 03:27:18;;;;;;;5.30;5.07;;;13.70;99.90;;;;;;4193643;28;20090;-56
2023/09/12 03:29:39;;;;;;;5.85;5.50;;;13.80;99.90;;;;;;4194514;28;20051;-57
2023/09/12 03:31:59;;;;;;;4.97;4.88;;;13.80;99.90;;;;;;4191913;28;20059;-56
2023/09/12 03:34:19;;;;;;;5.38;5.28;;;13.70;99.90;;;;;;4194217;28;20078;-57
2023/09/12 03:36:39;;;;;;;5.25;5.07;;;13.80;99.90;;;;;;4193181;28;20209;-56
2023/09/12 03:38:59;;;;;;;5.90;5.75;;;13.90;99.90;;;;;;4192692;28;20084;-56
2023/09/12 03:41:19;;;;;;;4.35;4.25;;;13.90;99.90;;;;;;4191958;28;20047;-56
2023/09/12 03:43:39;;;;;;;6.03;5.82;;;13.90;99.90;;;;;;4192107;28;20126;-56
2023/09/12 03:45:59;;;;;;;4.53;4.18;;;13.80;99.90;;;;;;4193324;28;20289;-56
2023/09/12 03:48:20;;;;;;;4.47;4.38;;;13.70;99.90;;;;;;4192065;28;20082;-57
2023/09/12 03:50:40;;;;;;;5.88;5.55;;;13.60;99.90;;;;;;4190895;28;20072;-57
2023/09/12 03:53:00;;;;;;;5.18;5.07;;;13.40;99.90;;;;;;4191821;28;20434;-56
2023/09/12 03:55:20;;;;;;;5.43;5.32;;;13.20;99.90;;;;;;4192284;28;20063;-57
2023/09/12 03:57:40;;;;;;;5.70;5.50;;;13.00;99.90;;;;;;4192172;28;20052;-57
2023/09/12 04:00:00;;;;;;;5.95;5.60;;;13.00;99.90;;;;;;4192363;28;20051;-57
2023/09/12 04:02:20;;;;;;;6.00;5.90;;;12.90;99.90;;;;;;4193087;28;20374;-56
2023/09/12 04:04:41;;;;;;;5.47;5.18;;;12.90;99.90;;;;;;4192194;28;20079;-57
2023/09/12 04:07:01;;;;;;;6.88;6.45;;;12.90;99.90;;;;;;4192046;28;20052;-57
2023/09/12 04:09:21;;;;;;;6.00;5.70;;;13.10;99.90;;;;;;4191031;28;20048;-57
2023/09/12 04:11:41;;;;;;;6.30;6.10;;;13.20;99.90;;;;;;4193581;28;20044;-56
2023/09/12 04:14:07;;;;;;;5.53;5.43;;;13.20;99.90;;;;;;4192967;28;20040;-57
2023/09/12 04:16:27;;;;;;;5.75;5.55;;;13.30;99.90;;;;;;4192359;28;20086;-57
2023/09/12 04:18:47;;;;;;;4.93;4.63;;;13.30;99.90;;;;;;4190497;28;20064;-57
2023/09/12 04:21:07;;;;;;;5.25;5.15;;;13.40;99.90;;;;;;4193832;28;20044;-56
2023/09/12 04:23:27;;;;;;;5.68;5.18;;;13.40;99.90;;;;;;4193054;28;20390;-57
2023/09/12 04:25:47;;;;;;;6.63;6.22;;;13.30;99.90;;;;;;4192428;28;20055;-57
2023/09/12 04:28:07;;;;;;;6.05;5.95;;;13.20;99.90;;;;;;4192599;28;20063;-57
2023/09/12 04:30:28;;;;;;;5.13;5.03;;;13.10;99.90;;;;;;4191034;28;20244;-56
2023/09/12 04:32:49;;;;;;;5.85;5.75;;;13.20;99.90;;;;;;4193370;28;20240;-57
2023/09/12 04:35:09;;;;;;;5.80;5.60;;;13.30;99.90;;;;;;4196925;28;20047;-56
2023/09/12 04:37:29;;;;;;;5.57;5.47;;;13.30;99.90;;;;;;4192827;28;20047;-56
2023/09/12 04:39:49;;;;;;;6.32;5.70;;;13.40;99.90;;;;;;4193196;28;20056;-56
2023/09/12 04:42:09;;;;;;;6.60;5.65;;;13.40;99.90;;;;;;4191938;28;20035;-57
2023/09/12 04:44:39;;;;;;;5.97;5.63;;;13.30;99.90;;;;;;4191631;28;20734;-56
2023/09/12 04:46:58;;;;;;;6.47;6.18;;;13.40;99.90;;;;;;4190813;28;20051;-56
2023/09/12 04:49:19;;;;;;;5.70;5.47;;;13.30;99.90;;;;;;4191966;28;20075;-56
2023/09/12 04:51:38;;;;;;;5.90;5.70;;;13.30;99.90;;;;;;4192432;28;20048;-57
2023/09/12 04:53:58;;;;;;;5.28;5.07;;;13.40;99.90;;;;;;4191893;28;20109;-57
2023/09/12 04:56:19;;;;;;;4.78;4.68;;;13.40;99.90;;;;;;4190710;28;20075;-56
2023/09/12 04:58:39;;;;;;;6.15;5.82;;;13.20;99.90;;;;;;4194540;28;20087;-56
2023/09/12 05:00:59;;;;;;;5.78;5.47;;;13.10;99.90;;;;;;4194414;28;20055;-57
2023/09/12 05:03:19;;;;;;;6.35;5.82;;;12.90;99.90;;;;;;4193119;28;20044;-57
2023/09/12 05:05:39;;;;;;;5.80;5.60;;;12.90;99.90;;;;;;4193956;28;20098;-56
2023/09/12 05:07:59;;;;;;;6.30;6.10;;;13.00;99.90;;;;;;4191562;28;20110;-57
2023/09/12 05:10:19;;;;;;;5.13;4.82;;;13.10;99.90;;;;;;4192910;28;20090;-57
2023/09/12 05:12:39;;;;;;;5.63;5.22;;;13.10;99.90;;;;;;4192239;28;20075;-57
2023/09/12 05:14:59;;;;;;;5.68;5.25;;;13.00;99.90;;;;;;4190986;28;20051;-56
2023/09/12 05:17:19;;;;;;;5.75;5.55;;;12.90;99.90;;;;;;4191075;28;20212;-56
2023/09/12 05:19:39;;;;;;;6.22;6.03;;;12.80;99.90;;;;;;4190754;28;20109;-56
2023/09/12 05:21:59;;;;;;;5.85;5.72;;;12.80;99.90;;;;;;4190785;28;20047;-57
2023/09/12 05:24:19;;;;;;;5.80;5.53;;;12.80;99.90;;;;;;4189188;28;20232;-57
2023/09/12 05:26:40;;;;;;;5.75;5.45;;;13.00;99.90;;;;;;4194080;28;20055;-56
2023/09/12 05:29:03;;;;;;;7.43;5.90;;;13.20;99.90;;;;;;4190900;28;20044;-56
2023/09/12 05:31:23;;;;;;;5.30;5.20;;;13.20;99.90;;;;;;4191676;28;20067;-57
2023/09/12 05:33:43;;;;;;;6.38;6.07;;;13.30;99.90;;;;;;4190834;28;20052;-56
2023/09/12 05:36:04;;;;;;;5.50;5.40;;;13.30;99.90;;;;;;4191537;28;20474;-56
2023/09/12 05:38:24;;;;;;;5.70;5.60;;;13.00;99.90;;;;;;4190407;28;20048;-56
2023/09/12 05:40:44;;;;;;;6.35;6.05;;;12.90;99.90;;;;;;4191954;28;20388;-56
2023/09/12 05:43:04;;;;;;;5.07;4.72;;;13.10;99.90;;;;;;4190903;28;20367;-56
2023/09/12 05:45:24;;;;;;;6.25;5.80;;;13.20;99.90;;;;;;4189978;28;20048;-56
2023/09/12 05:47:44;;;;;;;7.20;6.72;;;13.20;99.90;;;;;;4189506;28;20072;-56
2023/09/12 05:50:06;;;;;;;6.10;5.80;;;13.30;99.90;;;;;;4191037;28;20105;-56
2023/09/12 05:52:26;;;;;;;7.33;6.73;;;13.30;99.90;;;;;;4191847;28;20044;-56
2023/09/12 05:54:46;;;;;;;7.40;6.88;;;13.30;99.90;;;;;;4193251;28;20332;-56
2023/09/12 05:57:06;;;;;;;7.72;7.22;;;13.10;99.90;;;;;;4192038;28;20105;-56
2023/09/12 05:59:27;;;;;;;7.05;6.40;;;13.00;99.90;;;;;;4192760;28;20055;-56
2023/09/12 06:01:46;;;;;;;5.90;5.60;;;13.10;99.90;;;;;;4193231;28;20055;-56
2023/09/12 06:04:06;;;;;;;6.57;6.20;;;13.20;99.90;;;;;;4190208;28;20059;-56
2023/09/12 06:06:27;;;;;;;6.63;5.85;;;13.30;99.90;;;;;;4192261;28;20051;-56
2023/09/12 06:08:47;;;;;;;6.60;6.22;;;13.40;99.90;;;;;;4190474;28;20383;-56
2023/09/12 06:11:06;;;;;;;4.38;4.18;;;13.40;99.90;;;;;;4191040;28;20083;-56
2023/09/12 06:13:26;;;;;;;6.15;5.85;;;13.50;99.90;;;;;;4189829;28;20090;-57
2023/09/12 06:15:47;;;;;;;5.55;5.13;;;13.60;99.90;;;;;;4190893;28;20371;-56
2023/09/12 06:18:07;;;;;;;5.13;4.93;;;13.80;99.90;;;;;;4194533;28;20082;-56
2023/09/12 06:20:27;;;;;;;5.90;5.63;;;13.80;99.90;;;;;;4191379;28;20051;-56
2023/09/12 06:22:47;;;;;;;5.95;5.50;;;13.90;99.90;;;;;;4193903;28;20055;-56
2023/09/12 06:25:07;;;;;;;5.70;5.50;;;14.00;99.90;;;;;;4191338;28;20068;-56
2023/09/12 06:27:27;;;;;;;4.88;4.78;;;14.10;99.90;;;;;;4192769;28;20048;-56
2023/09/12 06:29:49;;;;;;;5.20;4.90;;;14.20;99.90;;;;;;4192782;28;20048;-57
2023/09/12 06:32:09;;;;;;;5.88;4.38;;;14.20;99.90;;;;;;4191860;28;20083;-57
2023/09/12 06:34:29;;;;;;;7.22;4.40;;;14.30;99.90;;;;;;4190565;28;20095;-57
2023/09/12 06:36:49;;;;;;;6.47;4.97;;;14.30;99.90;;;;;;4190139;28;20039;-57
2023/09/12 06:39:10;;;;;;;5.88;5.35;;;14.50;99.90;;;;;;4189795;28;20052;-57
2023/09/12 06:41:30;;;;;;;6.30;6.10;;;14.60;99.90;;;;;;4190290;28;20040;-56
2023/09/12 06:43:50;;;;;;;5.55;5.13;;;14.70;99.90;;;;;;4189790;28;20055;-56
2023/09/12 06:46:10;;;;;;;7.15;5.05;;;14.70;99.90;;;;;;4192170;28;20240;-57
2023/09/12 06:48:30;;;;;;;5.93;5.47;;;14.80;99.90;;;;;;4191047;28;20104;-56
2023/09/12 06:50:50;;;;;;;5.22;4.85;;;15.00;99.90;;;;;;4188537;28;20039;-57
2023/09/12 06:53:13;;;;;;;4.95;4.65;;;15.20;99.90;;;;;;4188713;28;20236;-56
2023/09/12 06:55:34;;;;;;;6.38;5.97;;;15.30;99.90;;;;;;4190023;28;20375;-56
2023/09/12 06:57:54;;;;;;;4.15;4.05;;;15.40;99.90;;;;;;4189645;28;20155;-56
2023/09/12 07:00:14;;;;;;;4.45;4.30;;;15.60;99.90;;;;;;4190336;28;20059;-57
2023/09/12 07:02:34;;;;;;;5.35;4.95;;;15.70;99.90;;;;;;4189674;28;20095;-57
2023/09/12 07:04:56;;;;;;;4.03;3.83;;;15.80;99.90;;;;;;4187569;28;20359;-57
2023/09/12 07:07:15;;;;;;;5.00;4.68;;;15.90;99.90;;;;;;4189505;28;20098;-57
2023/09/12 07:09:36;;;;;;;5.03;4.93;;;15.90;99.90;;;;;;4189704;28;20048;-56
2023/09/12 07:11:56;;;;;;;5.00;4.80;;;16.00;99.90;;;;;;4189481;28;20056;-57
2023/09/12 07:14:16;;;;;;;5.72;5.30;;;16.00;99.90;;;;;;4191241;28;20067;-56
2023/09/12 07:16:36;;;;;;;4.40;4.30;;;16.10;99.90;;;;;;4191675;28;20087;-56
2023/09/12 07:18:57;;;;;;;6.82;5.97;;;16.20;99.90;;;;;;4191947;28;20098;-57
2023/09/12 07:21:16;;;;;;;5.70;5.35;;;16.30;99.90;;;;;;4190105;28;20056;-57
2023/09/12 07:23:37;;;;;;;6.10;5.55;;;16.50;99.90;;;;;;4191210;28;20056;-57
2023/09/12 07:25:58;;;;;;;5.13;4.65;;;16.70;99.90;;;;;;4189877;28;20052;-56
2023/09/12 07:28:18;;;;;;;4.35;3.92;;;16.80;99.90;;;;;;4189300;28;20139;-56
2023/09/12 07:30:38;;;;;;;5.05;4.78;;;16.90;99.90;;;;;;4189650;28;20044;-56
2023/09/12 07:32:58;;;;;;;4.80;4.53;;;17.10;99.90;;;;;;4190766;28;20239;-56
2023/09/12 07:35:20;;;;;;;4.68;4.57;;;17.20;99.90;;;;;;4190973;28;20236;-57
2023/09/12 07:37:40;;;;;;;4.40;4.20;;;17.30;99.90;;;;;;4190700;28;20109;-57
2023/09/12 07:40:00;;;;;;;4.22;3.97;;;17.50;99.90;;;;;;4189308;28;20249;-57
2023/09/12 07:42:22;;;;;;;3.83;3.55;;;17.70;99.90;;;;;;4189596;28;20067;-57
2023/09/12 07:44:43;;;;;;;3.70;3.55;;;17.90;99.90;;;;;;4189570;28;20087;-57
2023/09/12 07:47:03;;;;;;;3.22;3.00;;;18.00;99.90;;;;;;4189789;28;20104;-57
2023/09/12 07:49:26;;;;;;;3.55;2.60;;;18.20;99.90;;;;;;4190048;28;20229;-56
2023/09/12 07:51:45;;;;;;;3.28;3.08;;;18.40;99.90;;;;;;4190074;28;20375;-56
2023/09/12 07:54:06;;;;;;;2.85;2.65;;;18.60;99.90;;;;;;4189736;28;20071;-57
2023/09/12 07:56:26;;;;;;;2.20;2.10;;;18.80;99.90;;;;;;4189961;28;20362;-57
2023/09/12 07:58:46;;;;;;;3.55;2.40;;;19.30;99.90;;;;;;4190470;28;20111;-56
2023/09/12 08:01:10;;;;;;;3.00;2.83;;;19.70;99.90;;;;;;4189711;28;20098;-57
2023/09/12 08:03:31;;;;;;;4.15;2.30;;;19.90;99.90;;;;;;4189209;28;20075;-57
2023/09/12 08:05:56;;;;;;;3.38;2.33;;;20.00;99.90;;;;;;4189996;28;20070;-57
2023/09/12 08:08:16;;;;;;;2.40;2.35;;;20.00;99.90;;;;;;4188414;28;20075;-57
2023/09/12 08:10:36;;;;;;;2.90;2.80;;;20.30;99.90;;;;;;4188817;28;20370;-57
2023/09/12 08:12:56;;;;;;;1.90;1.90;;;20.50;99.90;;;;;;4190174;28;20228;-56
2023/09/12 08:15:17;;;;;;;2.55;2.25;;;20.60;99.90;;;;;;4193588;28;20087;-57
2023/09/12 08:17:38;;;;;;;2.10;2.00;;;21.00;99.90;;;;;;4192176;28;20086;-56
2023/09/12 08:19:58;;;;;;;6.10;2.28;;;21.10;99.20;;;;;;4190086;28;20051;-57
2023/09/12 08:22:18;;;;;;;3.13;2.80;;;21.10;98.90;;;;;;4191541;28;20048;-58
2023/09/12 08:24:41;;;;;;;4.65;2.47;;;21.20;99.00;;;;;;4191367;28;20291;-56
2023/09/12 08:27:02;;;;;;;2.53;2.28;;;21.30;99.00;;;;;;4191070;28;20043;-57
2023/09/12 08:29:24;;;;;;;1.65;1.63;;;21.40;98.60;;;;;;4192463;28;20147;-57
2023/09/12 08:31:46;;;;;;;2.28;1.40;;;21.70;98.10;;;;;;4192242;28;20044;-57
2023/09/12 08:34:07;;;;;;;4.20;1.73;;;22.00;98.20;;;;;;4192120;28;20048;-57
2023/09/12 08:36:26;;;;;;;2.30;2.20;;;22.30;97.20;;;;;;4196797;28;20112;-57
2023/09/12 08:38:47;;;;;;;2.03;1.92;;;22.40;97.40;;;;;;4204526;28;20100;-57
2023/09/12 08:41:07;;;;;;;3.63;1.90;;;22.40;97.30;;;;;;4191366;28;20044;-57
2023/09/12 08:43:27;;;;;;;2.08;1.98;;;22.50;96.90;;;;;;4192156;28;20051;-57
2023/09/12 08:45:47;;;;;;;2.22;1.90;;;22.70;96.50;;;;;;4190055;28;20067;-56
2023/09/12 08:48:08;;;;;;;3.08;1.83;;;23.00;96.40;;;;;;4193358;28;20075;-58
2023/09/12 08:50:32;;;;;;;1.60;1.50;;;23.10;95.60;;;;;;4193936;28;20052;-57
2023/09/12 08:52:53;;;;;;;1.48;1.38;;;23.10;96.10;;;;;;4191548;28;20282;-57
2023/09/12 08:55:29;;;;;;;2.67;1.42;;;23.60;95.90;;;;;;4192912;28;20055;-57
2023/09/12 08:57:50;;;;;;;2.75;1.70;;;23.30;94.30;;;;;;4206557;28;20066;-57
2023/09/12 09:00:14;;;;;;;1.42;1.38;;;23.60;94.90;;;;;;4191561;28;20052;-57
2023/09/12 09:02:36;;;;;;;1.40;1.40;;;23.80;94.20;;;;;;4192448;28;20423;-57
2023/09/12 09:04:58;;;;;;;1.60;1.50;;;23.90;94.20;;;;;;4191067;28;20271;-57
2023/09/12 09:07:19;;;;;;;2.25;1.73;;;24.20;94.60;;;;;;4191263;28;20298;-56
2023/09/12 09:09:40;;;;;;;2.72;1.60;;;24.40;92.90;;;;;;4190812;28;20048;-57
2023/09/12 09:12:00;;;;;;;1.55;1.50;;;24.60;92.80;;;;;;4190724;28;20094;-57
2023/09/12 09:14:20;;;;;;;1.38;1.38;;;24.90;92.90;;;;;;4193088;28;20048;-56
2023/09/12 09:16:40;;;;;;;2.55;1.40;;;25.20;92.70;;;;;;4192253;28;20185;-57
2023/09/12 09:19:06;;;;;;;2.70;1.45;;;25.30;91.60;;;;;;4195691;28;20055;-57
2023/09/12 09:21:31;;;;;;;2.78;1.52;;;25.40;91.00;;;;;;4193597;28;20091;-57
2023/09/12 09:23:52;;;;;;;1.40;1.30;;;25.40;92.10;;;;;;4192166;28;20129;-57
2023/09/12 09:26:12;;;;;;;2.50;1.83;;;25.90;91.50;;;;;;4191817;28;20420;-57
2023/09/12 09:28:32;;;;;;;2.83;1.15;;;26.10;92.00;;;;;;4192419;28;20059;-57
2023/09/12 09:30:54;;;;;;;2.15;1.30;;;26.40;90.70;;;;;;4191793;28;20075;-57
2023/09/12 09:33:15;;;;;;;1.27;1.17;;;26.40;90.80;;;;;;4191516;28;20056;-57
2023/09/12 09:35:35;;;;;;;1.00;1.00;;;26.40;88.90;;;;;;4190789;28;20083;-57
2023/09/12 09:37:56;;;;;;;4.38;1.27;;;26.60;87.60;;;;;;4190547;28;20040;-57
2023/09/12 09:40:16;;;;;;;1.00;1.00;;;26.90;87.90;;;;;;4190785;28;20116;-57
2023/09/12 09:42:36;;;;;;;1.20;1.20;;;26.60;86.30;;;;;;4194922;28;20425;-57
2023/09/12 09:44:57;;;;;;;1.45;1.10;;;26.80;88.50;;;;;;4191842;28;20244;-57
2023/09/12 09:47:18;;;;;;;3.85;1.10;;;27.20;86.20;;;;;;4190102;28;20044;-57
2023/09/12 09:49:38;;;;;;;0.90;0.90;;;27.30;80.50;;;;;;4190389;28;20144;-57
2023/09/12 09:51:58;;;;;;;1.33;1.17;;;26.90;79.90;;;;;;4190620;28;20048;-57
2023/09/12 09:54:18;;;;;;;0.95;0.95;;;27.10;79.50;;;;;;4189389;28;20072;-57
2023/09/12 09:56:54;;;;;;;2.97;0.80;;;26.90;78.70;;;;;;4190021;28;20052;-58
2023/09/12 09:59:20;;;;;;;2.05;0.85;;;27.20;77.40;;;;;;4190619;28;20087;-58
2023/09/12 10:01:41;;;;;;;1.48;0.93;;;27.20;79.00;;;;;;4190677;28;20048;-57
2023/09/12 10:04:02;;;;;;;1.10;1.10;;;27.20;76.80;;;;;;4189404;28;20087;-57
2023/09/12 10:06:23;;;;;;;1.50;0.90;;;27.10;79.70;;;;;;4190897;28;20060;-57
2023/09/12 10:08:46;;;;;;;1.10;1.00;;;27.30;76.50;;;;;;4191823;28;20078;-58
2023/09/12 10:11:06;;;;;;;1.25;0.93;;;27.50;76.60;;;;;;4191434;28;20406;-57
2023/09/12 10:13:32;;;;;;;1.58;0.80;;;27.50;77.10;;;;;;4192200;28;20446;-57
2023/09/12 10:15:53;;;;;;;1.48;0.90;;;27.20;76.50;;;;;;4191808;28;20371;-57
2023/09/12 10:18:24;;;;;;;1.00;1.00;;;27.30;75.00;;;;;;4192700;28;20059;-57
2023/09/12 10:20:55;;;;;;;1.50;0.90;;;27.50;76.20;;;;;;4191804;28;20287;-57
2023/09/12 10:23:25;;;;;;;2.83;1.02;;;27.70;77.30;;;;;;4189406;28;20048;-57
2023/09/12 10:25:45;;;;;;;2.05;1.00;;;27.70;74.70;;;;;;4189690;28;20079;-57
2023/09/12 10:28:07;;;;;;;2.08;0.90;;;27.50;75.10;;;;;;4189973;28;20052;-59
2023/09/12 10:30:27;;;;;;;0.98;0.82;;;28.00;78.40;;;;;;4189930;28;20098;-59
2023/09/12 10:32:49;;;;;;;1.17;0.80;;;28.40;76.20;;;;;;4190484;28;20040;-59
2023/09/12 10:35:10;;;;;;;1.05;0.80;;;27.90;73.20;;;;;;4189630;28;20047;-59
2023/09/12 10:37:35;;;;;;;0.88;0.88;;;27.80;73.40;;;;;;4193062;28;20108;-59
2023/09/12 10:39:57;;;;;;;1.13;0.80;;;27.70;73.00;;;;;;4191756;28;20067;-57
2023/09/12 10:42:19;;;;;;;1.83;0.80;;;28.00;72.10;;;;;;4191945;28;20040;-57
2023/09/12 10:44:39;;;;;;;1.42;1.23;;;28.20;72.90;;;;;;4192682;28;20051;-58
2023/09/12 10:47:00;;;;;;;0.90;0.90;;;27.80;70.30;;;;;;4191072;28;20063;-57
2023/09/12 10:49:20;;;;;;;1.58;0.82;;;27.60;72.20;;;;;;4190063;28;20079;-58
2023/09/12 10:51:41;;;;;;;0.90;0.90;;;28.20;72.70;;;;;;4189855;28;20085;-58
2023/09/12 10:54:02;;;;;;;1.20;1.10;;;28.30;70.10;;;;;;4188869;28;20104;-57
2023/09/12 10:56:29;;;;;;;0.87;0.87;;;28.20;69.70;;;;;;4190703;28;20060;-57
2023/09/12 10:59:04;;;;;;;0.98;0.70;;;28.10;68.70;;;;;;4189729;28;20051;-57
2023/09/12 11:01:25;;;;;;;0.90;0.90;;;28.30;70.50;;;;;;4189770;28;20240;-58
2023/09/12 11:03:45;;;;;;;0.80;0.80;;;29.10;67.40;;;;;;4190251;28;20083;-58
2023/09/12 11:06:19;;;;;;;1.30;0.80;;;29.20;67.50;;;;;;4190502;28;20281;-57
2023/09/12 11:08:40;;;;;;;0.70;0.70;;;28.90;66.30;;;;;;4192415;28;20040;-58
2023/09/12 11:11:23;;;;;;;0.80;0.80;;;28.50;62.80;;;;;;4190132;28;20055;-57
2023/09/12 11:13:43;;;;;;;2.00;0.70;;;28.60;62.60;;;;;;4190711;28;20116;-57
2023/09/12 11:16:14;;;;;;;1.20;0.80;;;29.10;68.10;;;;;;4189412;28;20044;-57
2023/09/12 11:18:54;;;;;;;2.60;0.73;;;29.80;69.50;;;;;;4189252;28;20104;-58
2023/09/12 11:21:14;;;;;;;1.00;0.80;;;30.00;68.40;;;;;;4189473;28;20136;-57
2023/09/12 11:23:35;;;;;;;5.35;0.80;;;29.70;64.70;;;;;;4188095;28;20056;-57
2023/09/12 11:26:06;;;;;;;1.65;0.85;;;28.90;64.00;;;;;;4187631;28;20043;-57
2023/09/12 11:28:30;;;;;;;0.70;0.70;;;29.10;64.40;;;;;;4189360;28;20040;-58
2023/09/12 11:30:57;;;;;;;0.70;0.70;;;29.20;62.40;;;;;;4187597;28;20056;-57
2023/09/12 11:33:17;;;;;;;1.67;0.70;;;29.10;59.50;;;;;;4189206;28;20044;-58
2023/09/12 11:35:40;;;;;;;0.77;0.77;;;29.50;62.40;;;;;;4190034;28;20236;-57
2023/09/12 11:38:00;;;;;;;0.90;0.90;;;29.20;61.80;;;;;;4190806;28;20079;-58
2023/09/12 11:40:33;;;;;;;1.50;0.80;;;29.10;60.00;;;;;;4190144;28;20047;-58
2023/09/12 11:42:53;;;;;;;5.13;0.80;;;28.90;59.50;;;;;;4188899;28;20087;-58
2023/09/12 11:45:13;;;;;;;0.75;0.75;;;28.80;59.40;;;;;;4190071;28;20048;-58
2023/09/12 11:47:33;;;;;;;0.70;0.70;;;29.10;61.20;;;;;;4189229;28;20110;-58
2023/09/12 11:49:53;;;;;;;0.80;0.80;;;28.90;58.80;;;;;;4193928;28;20375;-59
2023/09/12 11:52:16;;;;;;;1.13;0.70;;;29.10;59.30;;;;;;4194320;28;20047;-58
2023/09/12 11:54:37;;;;;;;0.80;0.80;;;29.30;58.40;;;;;;4193154;28;20117;-59
2023/09/12 11:56:59;;;;;;;0.70;0.70;;;29.50;60.00;;;;;;4192339;28;20057;-59
2023/09/12 11:59:20;;;;;;;1.95;0.70;;;29.40;58.70;;;;;;4191626;28;20112;-59
2023/09/12 12:01:40;;;;;;;0.80;0.80;;;29.30;59.00;;;;;;4193245;28;20322;-58
2023/09/12 12:04:01;;;;;;;0.70;0.70;;;29.70;59.20;;;;;;4193814;28;20421;-59
2023/09/12 12:06:20;;;;;;;0.80;0.80;;;29.70;57.20;;;;;;4191661;28;20078;-58
2023/09/12 12:08:42;;;;;;;1.02;0.70;;;29.70;56.20;;;;;;4191215;28;20048;-58
2023/09/12 12:11:02;;;;;;;1.65;0.70;;;29.70;59.20;;;;;;4192481;28;20090;-58
2023/09/12 12:13:22;;;;;;;1.33;0.80;;;30.30;63.60;;;;;;4192178;28;20108;-58
2023/09/12 12:15:43;;;;;;;0.70;0.70;;;30.50;57.80;;;;;;4195709;28;20044;-58
2023/09/12 12:18:04;;;;;;;0.80;0.80;;;30.20;58.40;;;;;;4192221;28;20287;-59